Airfield :
LOGIN :

Register | Disclaimer

   EN    FR    IT 

 










Legend :    VFR   Marginal VFR   IFR   Intensive IFR   Very Intensive IFR
Visi :
Ceiling :
>= 8 km
>= 3000ft
5 to 8 km
1000 to 3000 ft
1500m to 5 km
500 to 1000 ft
800 to 1500m
200 to 500 ft
< 800m
< 200 ft
Symbols :   Thunderstorms  Fog  Heavy snow  Heavy precipitations  Wind > 20 kt
SIGMETs :     Misc.  Thunderstorms  Icing  Turbulence  Mountain Waves  Volcanic Ashes






- Airport Elevation : 699 ft
- IATA code : PAD


EDLP - Paderborn Lippstadt

CURRENT METAR :
  • 080920Z VRB03KT CAVOK 19/09 Q1026

EXPIRED METARs :
  • 080850Z VRB02KT CAVOK 19/06 Q1026
  • 080820Z 11003KT 040V150 CAVOK 18/06 Q1026
  • 080750Z VRB02KT CAVOK 17/06 Q1026
  • 080720Z 14006KT 100V160 CAVOK 16/06 Q1026

TAF TAF EDLP
Valid from the 08 at 06:00 until the 09 at 06:00 UTC


080550Z 0806/0906 15006KT CAVOK
BECMG 0809/0813 36005KT
BECMG 0817/0819 VRB03KT



MET'MAP, your aeronautical weather chart ! - Copyright ORBIFLY December 2007 - Disclaimer

ORBIFLY MET'MAP TEAM :

Programming & Development : Alexandra Zaïnal
Concept & original design : Baudouin d'Aumeries
Assistance for programming : Marc-Olivier Méhu
Technical & hardware support : Manuel Goepfert

Contact : metmap@orbifly.com




SOURCES & CREDITS :

   NOAA